Archival Weather

Luke Afb

Glendale, Arizona (KLUF)

Report from: Friday, April 19, 2024 4:55 AM MST
Current time: Monday, June 24, 2024 1:53 AM MST

Current weather – Weather history – Daily summaries
Weather forecast

Temperature16.5°C (61.7°F)
Dew point1.0°C (33.8°F)
Winds 4 kts (2.1 m/s, 4.6 mph) North (350°)
Visibility10 mi. (16.1 km)
Clouds Sky clear
Altimeter29.82 in.Hg (1010 mB)
Relative humidity35 %
Density altitude432 ft. (132 m)
Sea-level pressure100.9 kPa (1009 mB, 29.79 in.Hg)
Max temp last 6 hours24.5°C (76.1°F)
Min temp last 6 hours16.5°C (61.7°F)
Remarks Fully automated report
System requires maintenance
Automated weather observing station with precipitation discriminator
Pressure rising more quickly
Flight conditions Visual Meteorological Conditions
Raw dataKLUF 191155Z AUTO 35004KT 10SM CLR 17/01 A2982 RMK AO2 SLP087 T01650010 10245 20165 53002 $
An error has occurred. This application may no longer respond until reloaded. Reload 🗙